Time;durP1;ratioP1;P1;durP2;ratioP2;P2;SDS_P1;SDS_P2;PMS_P1;PMS_P2;Temp;Humidity;BMP_temperature;BMP_pressure;BME280_temperature;BME280_humidity;BME280_pressure;Samples;Min_cycle;Max_cycle;Signal;HPM_P1;HPM_P2
2023/04/25 00:00:19;;;;;;;4.63;2.47;;;13.30;99.90;;;;;;4892623;29;20045;-74
2023/04/25 00:02:46;;;;;;;4.57;2.40;;;13.40;99.90;;;;;;4899109;29;20017;-74
2023/04/25 00:05:12;;;;;;;5.53;2.78;;;13.40;99.90;;;;;;4899226;29;20136;-74
2023/04/25 00:07:38;;;;;;;3.35;2.53;;;13.40;99.90;;;;;;4878523;29;20048;-74
2023/04/25 00:10:04;;;;;;;5.45;2.67;;;13.30;99.90;;;;;;4875677;29;20025;-76
2023/04/25 00:12:30;;;;;;;5.95;2.53;;;13.30;99.90;;;;;;4889007;29;20036;-72
2023/04/25 00:14:59;;;;;;;4.80;2.67;;;13.30;99.90;;;;;;4896125;29;20127;-75
2023/04/25 00:17:26;;;;;;;3.50;2.70;;;13.30;99.90;;;;;;4881169;29;20054;-71
2023/04/25 00:19:52;;;;;;;4.30;2.88;;;13.30;99.90;;;;;;4866748;29;20175;-72
2023/04/25 00:22:18;;;;;;;5.40;2.92;;;13.20;99.90;;;;;;4881897;29;20108;-72
2023/04/25 00:24:44;;;;;;;5.35;2.72;;;13.20;99.90;;;;;;4899034;29;20052;-75
2023/04/25 00:27:10;;;;;;;5.10;2.90;;;13.20;99.90;;;;;;4898703;29;20099;-73
2023/04/25 00:29:36;;;;;;;4.22;3.33;;;13.20;99.90;;;;;;4899022;29;20032;-73
2023/04/25 00:32:02;;;;;;;5.57;2.88;;;13.20;99.90;;;;;;4898683;29;20032;-72
2023/04/25 00:34:28;;;;;;;5.85;2.78;;;13.20;99.90;;;;;;4881815;29;20032;-78
2023/04/25 00:36:54;;;;;;;5.50;3.47;;;13.20;99.90;;;;;;4881009;29;20480;-76
2023/04/25 00:39:20;;;;;;;9.55;4.72;;;13.10;99.90;;;;;;4885286;29;20294;-73
2023/04/25 00:41:47;;;;;;;11.25;5.38;;;13.10;99.90;;;;;;4883483;29;20021;-74
2023/04/25 00:44:16;;;;;;;10.75;4.93;;;13.10;99.90;;;;;;4881730;29;20139;-76
2023/04/25 00:46:43;;;;;;;10.32;4.20;;;13.10;99.90;;;;;;4881883;29;20068;-78
2023/04/25 00:49:13;;;;;;;8.90;4.07;;;13.10;99.90;;;;;;4865737;29;20052;-78
2023/04/25 00:51:39;;;;;;;16.70;4.55;;;13.10;99.90;;;;;;4881563;29;20096;-73
2023/04/25 00:54:05;;;;;;;12.13;3.80;;;13.00;99.90;;;;;;4885933;29;20476;-72
2023/04/25 00:56:31;;;;;;;5.55;4.05;;;13.00;99.90;;;;;;4898259;29;20029;-74
2023/04/25 00:58:57;;;;;;;6.95;4.22;;;13.00;99.90;;;;;;4868289;29;20040;-78
2023/04/25 01:01:23;;;;;;;7.53;4.45;;;13.00;99.90;;;;;;4862754;29;20047;-74
2023/04/25 01:03:50;;;;;;;4.75;3.22;;;13.00;99.90;;;;;;4896098;29;20057;-72
2023/04/25 01:06:17;;;;;;;7.18;3.67;;;12.90;99.90;;;;;;4881279;29;20051;-75
2023/04/25 01:08:42;;;;;;;8.30;3.80;;;13.00;99.90;;;;;;4890256;29;20068;-73
2023/04/25 01:11:09;;;;;;;7.38;3.92;;;13.00;99.90;;;;;;4898028;29;20104;-73
2023/04/25 01:13:35;;;;;;;6.53;3.55;;;12.90;99.90;;;;;;4898183;29;20456;-77
2023/04/25 01:16:02;;;;;;;6.80;3.60;;;12.90;99.90;;;;;;4898037;29;20028;-77
2023/04/25 01:18:28;;;;;;;6.88;3.67;;;12.90;99.90;;;;;;4896310;29;20020;-73
2023/04/25 01:20:55;;;;;;;7.45;3.33;;;12.90;99.90;;;;;;4874899;29;20032;-78
2023/04/25 01:23:22;;;;;;;6.07;3.22;;;12.80;99.90;;;;;;4880935;29;20036;-73
2023/04/25 01:25:49;;;;;;;6.22;3.53;;;12.80;99.90;;;;;;4881120;29;20091;-77
2023/04/25 01:28:16;;;;;;;6.43;3.47;;;12.80;99.90;;;;;;4880726;29;20437;-72
2023/04/25 01:30:42;;;;;;;7.30;3.70;;;12.70;99.90;;;;;;4897757;29;20036;-72
2023/04/25 01:33:09;;;;;;;6.25;3.42;;;12.80;99.90;;;;;;4897139;29;20036;-75
2023/04/25 01:35:34;;;;;;;9.60;3.88;;;12.70;99.90;;;;;;4880750;29;20032;-77
2023/04/25 01:38:00;;;;;;;8.00;3.55;;;12.70;99.90;;;;;;4880197;29;20036;-74
2023/04/25 01:40:27;;;;;;;5.95;3.47;;;12.70;99.90;;;;;;4880690;29;20097;-78
2023/04/25 01:42:54;;;;;;;7.90;3.78;;;12.70;99.90;;;;;;4879942;29;20385;-77
2023/04/25 01:45:20;;;;;;;7.07;3.88;;;12.70;99.90;;;;;;4880791;29;20493;-74
2023/04/25 01:47:49;;;;;;;7.18;4.07;;;12.70;99.90;;;;;;4879944;29;20024;-77
2023/04/25 01:50:16;;;;;;;7.25;3.10;;;12.70;99.90;;;;;;4864804;29;20029;-75
2023/04/25 01:52:42;;;;;;;5.70;3.47;;;12.80;99.90;;;;;;4880211;29;20068;-76
2023/04/25 01:55:09;;;;;;;6.78;3.80;;;12.80;99.90;;;;;;4873206;29;20064;-78
2023/04/25 01:57:38;;;;;;;6.05;3.47;;;12.80;99.90;;;;;;4889747;29;20412;-72
2023/04/25 02:00:08;;;;;;;6.35;3.72;;;12.70;99.90;;;;;;4898181;29;20068;-74
2023/04/25 02:02:40;;;;;;;5.25;3.08;;;12.60;99.90;;;;;;4912324;29;20032;-73
2023/04/25 02:05:26;;;;;;;5.97;3.65;;;12.60;99.90;;;;;;4910689;29;20048;-70
2023/04/25 02:07:52;;;;;;;8.20;3.90;;;12.60;99.90;;;;;;4898862;29;20040;-71
2023/04/25 02:10:18;;;;;;;4.78;3.33;;;12.60;99.90;;;;;;4916204;29;20028;-73
2023/04/25 02:13:23;;;;;;;7.82;4.20;;;12.60;99.90;;;;;;4883399;29;20509;-70
2023/04/25 02:16:09;;;;;;;8.00;4.38;;;12.60;99.90;;;;;;4889176;29;20047;-73
2023/04/25 02:18:39;;;;;;;8.35;4.13;;;12.60;99.90;;;;;;4866870;29;20044;-72
2023/04/25 02:21:06;;;;;;;5.82;3.55;;;12.60;99.90;;;;;;4879499;29;20029;-70
2023/04/25 02:23:33;;;;;;;5.72;3.28;;;12.60;99.90;;;;;;4876586;29;20051;-70
2023/04/25 02:25:59;;;;;;;6.97;3.80;;;12.60;99.90;;;;;;4877364;29;20040;-71
2023/04/25 02:28:25;;;;;;;6.30;3.30;;;12.60;99.90;;;;;;4876502;29;20133;-71
2023/04/25 02:30:52;;;;;;;6.07;3.55;;;12.50;99.90;;;;;;4869928;29;20408;-73
2023/04/25 02:33:18;;;;;;;5.50;3.20;;;12.60;99.90;;;;;;4894152;29;20339;-72
2023/04/25 02:35:44;;;;;;;6.45;3.88;;;12.60;99.90;;;;;;4878282;29;20047;-73
2023/04/25 02:38:10;;;;;;;6.25;3.67;;;12.50;99.90;;;;;;4894496;29;20040;-73
2023/04/25 02:40:35;;;;;;;7.20;3.88;;;12.60;99.90;;;;;;4879195;29;20192;-76
2023/04/25 02:43:01;;;;;;;7.72;3.45;;;12.50;99.90;;;;;;4892362;29;20052;-72
2023/04/25 02:45:27;;;;;;;6.63;3.78;;;12.60;99.90;;;;;;4914729;29;20040;-74
2023/04/25 02:47:53;;;;;;;6.45;4.05;;;12.60;99.90;;;;;;4915607;29;20079;-72
2023/04/25 02:50:19;;;;;;;7.47;3.78;;;12.60;99.90;;;;;;4895546;29;20484;-73
2023/04/25 02:52:45;;;;;;;7.70;3.72;;;12.60;99.90;;;;;;4900419;29;20139;-77
2023/04/25 02:55:15;;;;;;;6.93;3.40;;;12.60;99.90;;;;;;4898210;29;20075;-74
2023/04/25 02:57:42;;;;;;;7.47;3.90;;;12.50;99.90;;;;;;4898436;29;20048;-73
2023/04/25 03:00:14;;;;;;;7.45;4.28;;;12.60;99.90;;;;;;4898233;29;20036;-73
2023/04/25 03:02:40;;;;;;;6.20;4.15;;;12.60;99.90;;;;;;4918978;29;20020;-72
2023/04/25 03:05:07;;;;;;;8.90;4.78;;;12.60;99.90;;;;;;4901396;29;20400;-72
2023/04/25 03:07:33;;;;;;;10.63;4.90;;;12.60;99.90;;;;;;4901774;29;20468;-72
2023/04/25 03:09:59;;;;;;;8.70;4.03;;;12.60;99.90;;;;;;4901749;29;20059;-72
2023/04/25 03:12:25;;;;;;;6.97;4.53;;;12.60;99.90;;;;;;4900322;29;20028;-74
2023/04/25 03:14:51;;;;;;;6.97;4.15;;;12.60;99.90;;;;;;4902148;29;20377;-73
2023/04/25 03:17:17;;;;;;;8.23;4.70;;;12.60;99.90;;;;;;4899909;29;20032;-74
2023/04/25 03:19:42;;;;;;;10.85;4.70;;;12.60;99.90;;;;;;4895699;29;20099;-72
2023/04/25 03:22:08;;;;;;;11.43;5.03;;;12.60;99.90;;;;;;4918517;29;20447;-72
2023/04/25 03:24:35;;;;;;;5.25;2.97;;;12.50;99.90;;;;;;4901978;29;20084;-75
2023/04/25 03:27:01;;;;;;;5.20;2.03;;;12.40;99.90;;;;;;4901388;29;20472;-73
2023/04/25 03:29:27;;;;;;;3.45;1.60;;;12.30;99.90;;;;;;4897611;29;20024;-75
2023/04/25 03:31:55;;;;;;;5.05;1.80;;;12.30;99.90;;;;;;4901763;29;20036;-74
2023/04/25 03:34:21;;;;;;;1.52;1.40;;;12.30;99.90;;;;;;4899679;29;20083;-71
2023/04/25 03:36:47;;;;;;;3.40;1.20;;;12.20;99.90;;;;;;4885867;29;20099;-74
2023/04/25 03:39:13;;;;;;;2.75;1.50;;;12.20;99.90;;;;;;4899692;29;20450;-74
2023/04/25 03:41:45;;;;;;;3.70;1.95;;;12.10;99.90;;;;;;4889312;29;20040;-70
2023/04/25 03:44:14;;;;;;;2.90;1.08;;;12.10;99.90;;;;;;4901249;29;20032;-71
2023/04/25 03:46:40;;;;;;;2.42;1.60;;;12.10;99.90;;;;;;4901230;29;20388;-71
2023/04/25 03:49:06;;;;;;;1.98;1.20;;;12.10;99.90;;;;;;4915026;29;20036;-71
2023/04/25 03:51:53;;;;;;;1.80;1.00;;;12.10;99.90;;;;;;4900836;29;20036;-71
2023/04/25 03:54:18;;;;;;;1.35;0.93;;;12.00;99.90;;;;;;4901298;29;20133;-71
2023/04/25 03:57:07;;;;;;;1.25;1.10;;;11.90;99.90;;;;;;4853138;29;20383;-72
2023/04/25 03:59:36;;;;;;;1.30;1.00;;;11.90;99.90;;;;;;4835246;29;20065;-75
2023/04/25 04:02:03;;;;;;;4.10;1.30;;;11.90;99.90;;;;;;4837341;29;20038;-74
2023/04/25 04:04:28;;;;;;;3.38;1.98;;;11.80;99.90;;;;;;4826256;29;20037;-71
2023/04/25 04:06:55;;;;;;;2.80;1.70;;;11.80;99.90;;;;;;4818928;29;20038;-71
2023/04/25 04:09:25;;;;;;;2.47;1.80;;;11.70;99.90;;;;;;4819322;29;20514;-70
2023/04/25 04:11:51;;;;;;;3.22;1.70;;;11.70;99.90;;;;;;4829297;29;20041;-71
2023/04/25 04:14:17;;;;;;;2.78;1.80;;;11.70;99.90;;;;;;4835589;29;20057;-69
2023/04/25 04:16:45;;;;;;;6.80;1.67;;;11.70;99.90;;;;;;4827686;29;20082;-71
2023/04/25 04:19:11;;;;;;;3.22;2.25;;;11.60;99.90;;;;;;4859544;29;20064;-70
2023/04/25 04:21:41;;;;;;;4.60;2.75;;;11.60;99.90;;;;;;4859149;29;20521;-71
2023/04/25 04:24:07;;;;;;;5.70;3.10;;;11.60;99.90;;;;;;4842481;29;20064;-73
2023/04/25 04:26:46;;;;;;;8.30;4.95;;;11.60;99.90;;;;;;4828703;29;20069;-71
2023/04/25 04:29:32;;;;;;;8.63;4.13;;;11.50;99.90;;;;;;4804268;29;20042;-70
2023/04/25 04:32:03;;;;;;;6.65;3.80;;;11.50;99.90;;;;;;4822097;29;20054;-71
2023/04/25 04:34:31;;;;;;;5.13;3.33;;;11.50;99.90;;;;;;4843641;29;20041;-71
2023/04/25 04:36:57;;;;;;;5.68;3.03;;;11.50;99.90;;;;;;4859346;29;20081;-71
2023/04/25 04:39:24;;;;;;;3.53;2.40;;;11.50;99.90;;;;;;4858949;29;20037;-71
2023/04/25 04:42:05;;;;;;;7.18;4.25;;;11.50;99.90;;;;;;4851449;29;20033;-72
2023/04/25 04:44:44;;;;;;;8.70;5.15;;;11.50;99.90;;;;;;4862282;29;20615;-71
2023/04/25 04:47:25;;;;;;;5.87;2.93;;;11.40;99.90;;;;;;4878144;29;20085;-71
2023/04/25 04:50:03;;;;;;;6.05;3.40;;;11.40;99.90;;;;;;4877484;29;20659;-72
2023/04/25 04:52:43;;;;;;;3.95;2.55;;;11.30;99.90;;;;;;4877489;29;20032;-72
2023/04/25 04:55:27;;;;;;;5.15;3.58;;;11.30;99.90;;;;;;4877867;29;20442;-71
2023/04/25 04:58:08;;;;;;;5.18;3.65;;;11.30;99.90;;;;;;4848919;29;20073;-73
2023/04/25 05:00:56;;;;;;;5.55;3.38;;;11.30;99.90;;;;;;4785662;29;20063;-71
2023/04/25 05:03:34;;;;;;;5.78;3.30;;;11.30;99.90;;;;;;4770701;29;20128;-73
2023/04/25 05:06:00;;;;;;;6.55;3.33;;;11.20;99.90;;;;;;4789888;29;20504;-70
2023/04/25 05:08:45;;;;;;;6.82;4.13;;;11.20;99.90;;;;;;4803266;29;20444;-71
2023/04/25 05:11:29;;;;;;;6.18;3.55;;;11.20;99.90;;;;;;4796924;29;20107;-72
2023/04/25 05:14:18;;;;;;;6.15;3.83;;;11.10;99.90;;;;;;4750454;29;20428;-71
2023/04/25 05:17:13;;;;;;;6.40;3.72;;;11.10;99.90;;;;;;4745846;30;20124;-72
2023/04/25 05:19:58;;;;;;;8.13;4.28;;;11.10;99.90;;;;;;4749804;30;20437;-72
2023/04/25 05:22:33;;;;;;;6.00;3.53;;;11.10;99.90;;;;;;4735027;30;20112;-71
2023/04/25 05:25:16;;;;;;;7.10;4.00;;;11.10;99.90;;;;;;4735035;30;20040;-71
2023/04/25 05:28:05;;;;;;;4.57;3.42;;;11.00;99.90;;;;;;4741586;30;20092;-72
2023/04/25 05:30:57;;;;;;;6.18;3.50;;;11.00;99.90;;;;;;4749870;30;20055;-73
2023/04/25 05:33:38;;;;;;;5.45;3.58;;;11.00;99.90;;;;;;4735153;30;20123;-75
2023/04/25 05:36:04;;;;;;;5.88;3.95;;;11.00;99.90;;;;;;4720197;30;20036;-72
2023/04/25 05:38:30;;;;;;;7.22;3.55;;;11.00;99.90;;;;;;4773409;29;20068;-72
2023/04/25 05:41:16;;;;;;;5.93;3.70;;;11.10;99.90;;;;;;4803290;29;20047;-72
2023/04/25 05:43:49;;;;;;;6.40;3.80;;;11.10;99.90;;;;;;4781276;29;20419;-73
2023/04/25 05:46:33;;;;;;;8.05;3.50;;;11.10;99.90;;;;;;4803403;29;20079;-72
2023/04/25 05:49:20;;;;;;;7.28;3.20;;;11.00;99.90;;;;;;4802773;29;20039;-73
2023/04/25 05:52:04;;;;;;;6.28;3.30;;;11.00;99.90;;;;;;4847357;29;20072;-73
2023/04/25 05:54:41;;;;;;;6.55;3.53;;;11.10;99.90;;;;;;4867996;29;20123;-71
2023/04/25 05:57:07;;;;;;;3.53;2.72;;;11.00;99.90;;;;;;4885835;29;20491;-70
2023/04/25 05:59:33;;;;;;;6.15;3.50;;;11.10;99.90;;;;;;4898314;29;20052;-75
2023/04/25 06:02:00;;;;;;;8.75;4.45;;;11.20;99.90;;;;;;4899166;29;20066;-71
2023/04/25 06:04:27;;;;;;;7.18;4.45;;;11.20;99.90;;;;;;4898896;29;20083;-70
2023/04/25 06:06:53;;;;;;;6.38;3.83;;;11.20;99.90;;;;;;4915517;29;20051;-71
2023/04/25 06:09:21;;;;;;;7.50;3.28;;;11.20;99.90;;;;;;4898646;29;20319;-71
2023/04/25 06:11:47;;;;;;;6.32;3.45;;;11.20;99.90;;;;;;4898596;29;20028;-71
2023/04/25 06:14:13;;;;;;;5.32;3.00;;;11.10;99.90;;;;;;4915744;29;20036;-72
2023/04/25 06:16:44;;;;;;;5.22;3.28;;;11.20;99.90;;;;;;4898794;29;20032;-72
2023/04/25 06:19:10;;;;;;;3.40;2.58;;;11.30;99.90;;;;;;4892060;29;20503;-72
2023/04/25 06:21:36;;;;;;;4.97;3.03;;;11.20;99.90;;;;;;4914804;29;20024;-72
2023/04/25 06:24:02;;;;;;;5.38;3.40;;;11.30;99.90;;;;;;4899060;29;20028;-71
2023/04/25 06:26:28;;;;;;;8.73;3.22;;;11.30;99.90;;;;;;4898669;29;20027;-71
2023/04/25 06:28:54;;;;;;;7.60;3.15;;;11.30;99.90;;;;;;4915454;29;20080;-72
2023/04/25 06:31:20;;;;;;;6.55;3.95;;;11.40;99.90;;;;;;4915809;29;20091;-72
2023/04/25 06:33:48;;;;;;;5.63;3.47;;;11.40;99.90;;;;;;4898472;29;20036;-72
2023/04/25 06:36:14;;;;;;;7.32;3.50;;;11.40;99.90;;;;;;4898158;29;20028;-70
2023/04/25 06:38:42;;;;;;;5.53;2.63;;;11.40;99.90;;;;;;4883174;29;20032;-71
2023/04/25 06:41:07;;;;;;;7.70;2.95;;;11.50;99.90;;;;;;4915653;29;20040;-73
2023/04/25 06:43:35;;;;;;;6.32;3.53;;;11.50;99.90;;;;;;4898387;29;20020;-73
2023/04/25 06:46:24;;;;;;;6.55;3.70;;;11.50;99.90;;;;;;4855355;29;20070;-73
2023/04/25 06:48:50;;;;;;;11.52;4.35;;;11.60;99.90;;;;;;4841949;29;20041;-73
2023/04/25 06:51:17;;;;;;;6.75;3.30;;;11.60;99.90;;;;;;4854306;29;20041;-72
2023/04/25 06:53:44;;;;;;;6.20;3.33;;;11.60;99.90;;;;;;4826215;29;20045;-72
2023/04/25 06:56:18;;;;;;;5.85;2.90;;;11.70;99.90;;;;;;4823231;29;20021;-73
2023/04/25 06:58:58;;;;;;;6.57;3.80;;;11.80;99.90;;;;;;4806515;29;20076;-71
2023/04/25 07:01:29;;;;;;;7.82;3.38;;;11.80;99.90;;;;;;4836707;29;20044;-73
2023/04/25 07:03:58;;;;;;;4.30;2.65;;;11.90;99.90;;;;;;4819126;29;20038;-74
2023/04/25 07:06:25;;;;;;;4.53;2.67;;;12.00;99.90;;;;;;4803947;29;20037;-72
2023/04/25 07:08:52;;;;;;;5.38;3.08;;;12.00;99.90;;;;;;4834965;29;20035;-76
2023/04/25 07:11:18;;;;;;;6.20;3.13;;;12.10;99.90;;;;;;4820063;29;20522;-74
2023/04/25 07:13:43;;;;;;;6.05;3.03;;;12.20;99.90;;;;;;4828192;29;20066;-73
2023/04/25 07:16:09;;;;;;;4.50;3.20;;;12.10;99.90;;;;;;4821218;29;20046;-74
2023/04/25 07:18:36;;;;;;;5.93;3.35;;;12.30;99.90;;;;;;4829162;29;20498;-73
2023/04/25 07:21:02;;;;;;;7.93;3.28;;;12.30;99.90;;;;;;4835809;29;20049;-73
2023/04/25 07:23:30;;;;;;;6.13;2.95;;;12.50;99.90;;;;;;4879861;29;20043;-72
2023/04/25 07:25:59;;;;;;;4.28;2.72;;;12.60;99.90;;;;;;4891727;29;20043;-73
2023/04/25 07:28:26;;;;;;;5.18;3.00;;;12.60;99.90;;;;;;4880354;29;20496;-73
2023/04/25 07:30:51;;;;;;;3.63;2.63;;;12.70;99.90;;;;;;4896093;29;20107;-73
2023/04/25 07:33:20;;;;;;;3.90;2.63;;;12.70;99.90;;;;;;4879651;29;20500;-73
2023/04/25 07:35:46;;;;;;;5.53;3.20;;;12.80;99.90;;;;;;4895950;29;20397;-74
2023/04/25 07:38:12;;;;;;;5.13;3.17;;;12.90;99.90;;;;;;4881437;29;20073;-73
2023/04/25 07:40:38;;;;;;;4.82;2.70;;;13.00;99.90;;;;;;4878788;29;20131;-73
2023/04/25 07:43:07;;;;;;;5.63;2.72;;;13.10;99.90;;;;;;4884749;29;20024;-72
2023/04/25 07:45:44;;;;;;;5.32;3.30;;;13.10;99.90;;;;;;4907855;29;20024;-74
2023/04/25 07:48:10;;;;;;;12.35;3.20;;;13.30;99.90;;;;;;4912055;29;20395;-72
2023/04/25 07:50:40;;;;;;;4.78;3.20;;;13.40;99.90;;;;;;4921306;29;20055;-72
2023/04/25 07:53:06;;;;;;;7.70;3.03;;;13.70;99.90;;;;;;4910087;29;20029;-75
2023/04/25 07:55:39;;;;;;;5.13;2.88;;;13.80;99.90;;;;;;4886126;29;20108;-74
2023/04/25 07:58:15;;;;;;;5.90;3.45;;;14.10;99.90;;;;;;4889944;29;20108;-73
2023/04/25 08:00:43;;;;;;;5.32;3.03;;;14.10;99.90;;;;;;4887278;29;20130;-76
2023/04/25 08:03:48;;;;;;;4.85;2.20;;;14.50;99.90;;;;;;4860394;29;20022;-73
2023/04/25 08:06:31;;;;;;;2.67;1.88;;;14.60;99.90;;;;;;4860647;29;20129;-72
2023/04/25 08:09:16;;;;;;;5.28;2.55;;;14.60;99.90;;;;;;4860911;29;20568;-73
2023/04/25 08:11:43;;;;;;;6.68;2.63;;;14.70;99.90;;;;;;4860629;29;20071;-76
2023/04/25 08:14:12;;;;;;;6.13;2.20;;;14.80;99.90;;;;;;4860612;29;20026;-73
2023/04/25 08:16:39;;;;;;;4.05;1.73;;;14.70;99.90;;;;;;4844854;29;20124;-74
2023/04/25 08:19:05;;;;;;;4.78;2.97;;;14.80;99.90;;;;;;4847755;29;20038;-73
2023/04/25 08:21:32;;;;;;;2.55;1.55;;;15.20;99.90;;;;;;4848997;29;20647;-73
2023/04/25 08:24:01;;;;;;;6.30;2.80;;;14.90;99.90;;;;;;4857292;29;20028;-74
2023/04/25 08:26:29;;;;;;;5.63;2.30;;;15.30;99.90;;;;;;4860584;29;20129;-74
2023/04/25 08:28:56;;;;;;;7.03;2.95;;;15.20;99.90;;;;;;4860586;29;20045;-75
2023/04/25 08:31:22;;;;;;;3.58;1.92;;;15.50;99.90;;;;;;4853043;29;20033;-73
2023/04/25 08:33:54;;;;;;;3.00;1.77;;;15.90;99.90;;;;;;4868476;29;20047;-74
2023/04/25 08:36:27;;;;;;;3.75;1.70;;;16.10;99.90;;;;;;4900317;29;20041;-75
2023/04/25 08:38:53;;;;;;;6.03;1.90;;;15.90;99.90;;;;;;4895754;29;20071;-74
2023/04/25 08:41:20;;;;;;;5.82;1.75;;;15.80;99.90;;;;;;4885433;29;20040;-76
2023/04/25 08:43:49;;;;;;;3.45;2.17;;;15.90;99.90;;;;;;4918439;29;20064;-73
2023/04/25 08:46:18;;;;;;;3.13;1.80;;;16.40;99.90;;;;;;4908597;29;20116;-77
2023/04/25 08:49:19;;;;;;;8.32;2.20;;;15.90;99.90;;;;;;4875455;29;20051;-73
2023/04/25 08:51:47;;;;;;;3.90;1.83;;;16.00;99.90;;;;;;4863084;29;20045;-74
2023/04/25 08:54:14;;;;;;;2.70;1.75;;;15.90;99.90;;;;;;4862941;29;20422;-73
2023/04/25 08:56:48;;;;;;;2.88;1.98;;;15.80;99.90;;;;;;4870096;29;20052;-74
2023/04/25 08:59:14;;;;;;;5.15;1.80;;;16.50;99.90;;;;;;4859198;29;20042;-74
2023/04/25 09:01:43;;;;;;;3.05;1.77;;;16.30;99.90;;;;;;4847592;29;20037;-73
2023/04/25 09:04:09;;;;;;;4.82;1.67;;;15.90;99.90;;;;;;4852470;29;20406;-76
2023/04/25 09:06:36;;;;;;;6.68;1.77;;;16.10;99.90;;;;;;4845324;29;20029;-75
2023/04/25 09:09:05;;;;;;;3.40;2.00;;;15.90;99.90;;;;;;4853289;29;20034;-73
2023/04/25 09:11:31;;;;;;;3.30;1.60;;;15.90;99.90;;;;;;4839498;29;20411;-75
2023/04/25 09:14:12;;;;;;;3.00;1.80;;;16.10;99.90;;;;;;4851427;29;20048;-77
2023/04/25 09:16:57;;;;;;;3.28;1.73;;;15.80;99.90;;;;;;4835934;29;20129;-76
2023/04/25 09:19:52;;;;;;;5.00;2.60;;;15.20;99.90;;;;;;4817899;29;20056;-74
2023/04/25 09:22:25;;;;;;;27.63;5.82;;;15.30;99.90;;;;;;4837657;29;20054;-74
2023/04/25 09:24:53;;;;;;;8.35;2.15;;;15.60;99.90;;;;;;4823816;29;20050;-74
2023/04/25 09:27:26;;;;;;;35.75;4.90;;;15.60;99.90;;;;;;4856469;29;20026;-73
2023/04/25 09:30:16;;;;;;;3.90;2.17;;;15.80;99.90;;;;;;4835811;29;20038;-74
2023/04/25 09:33:07;;;;;;;6.60;2.28;;;15.90;99.90;;;;;;4826094;29;20033;-74
2023/04/25 09:35:39;;;;;;;3.40;2.05;;;15.80;99.90;;;;;;4843750;29;20030;-74
2023/04/25 09:38:14;;;;;;;3.30;1.97;;;15.70;99.90;;;;;;4843732;29;20029;-77
2023/04/25 09:40:52;;;;;;;5.32;2.70;;;15.80;99.90;;;;;;4843470;29;20399;-75
2023/04/25 09:43:36;;;;;;;3.95;2.08;;;15.70;99.90;;;;;;4852209;29;20037;-75
2023/04/25 09:46:02;;;;;;;4.18;1.83;;;15.80;99.90;;;;;;4859442;29;20063;-73
2023/04/25 09:48:29;;;;;;;3.13;2.00;;;15.80;99.90;;;;;;4849037;29;20079;-74
2023/04/25 09:51:14;;;;;;;5.43;2.17;;;15.60;99.90;;;;;;4837662;29;20421;-75
2023/04/25 09:53:51;;;;;;;;;;;15.70;99.90;;;;;;4834476;29;20029;-75
2023/04/25 09:56:24;;;;;;;3.55;1.60;;;15.70;99.90;;;;;;4857113;29;20296;-73
2023/04/25 09:58:53;;;;;;;2.83;1.30;;;15.70;99.90;;;;;;4891973;29;20048;-75
2023/04/25 10:01:21;;;;;;;2.90;1.90;;;15.70;99.90;;;;;;4916067;29;20074;-74
2023/04/25 10:04:06;;;;;;;7.90;1.60;;;15.80;99.90;;;;;;4900414;29;20453;-73
2023/04/25 10:06:43;;;;;;;1.80;1.23;;;16.10;99.90;;;;;;4917162;29;20452;-77
2023/04/25 10:09:11;;;;;;;3.70;1.70;;;16.70;99.90;;;;;;4899180;29;20068;-76
2023/04/25 10:11:39;;;;;;;2.92;1.67;;;17.20;99.90;;;;;;4899979;29;20039;-74
2023/04/25 10:14:05;;;;;;;3.80;2.50;;;17.30;99.90;;;;;;4917178;29;20024;-75
2023/04/25 10:16:32;;;;;;;2.50;1.45;;;17.30;98.30;;;;;;4911273;29;20053;-77
2023/04/25 10:18:58;;;;;;;7.28;2.03;;;17.30;98.10;;;;;;4910562;29;20040;-73
2023/04/25 10:21:27;;;;;;;5.43;2.10;;;17.40;96.40;;;;;;4895799;29;20041;-73
2023/04/25 10:23:53;;;;;;;6.25;2.05;;;17.40;96.10;;;;;;4910508;29;20081;-73
2023/04/25 10:26:20;;;;;;;3.03;1.27;;;17.30;97.70;;;;;;4907244;29;20032;-73
2023/04/25 10:28:59;;;;;;;3.65;1.70;;;17.00;98.60;;;;;;4916878;29;20035;-75
2023/04/25 10:31:25;;;;;;;10.55;1.92;;;16.70;96.40;;;;;;4892606;29;20033;-75
2023/04/25 10:33:51;;;;;;;8.60;2.20;;;16.40;97.70;;;;;;4911363;29;20031;-74
2023/04/25 10:36:26;;;;;;;1.85;1.13;;;16.30;98.70;;;;;;4891270;29;20024;-76
2023/04/25 10:38:54;;;;;;;3.10;1.55;;;16.50;98.20;;;;;;4903280;29;20127;-73
2023/04/25 10:41:22;;;;;;;3.35;1.70;;;16.30;98.70;;;;;;4916784;29;20044;-77
2023/04/25 10:43:50;;;;;;;1.98;1.38;;;16.30;99.50;;;;;;4908885;29;20036;-75
2023/04/25 10:46:16;;;;;;;3.75;1.77;;;16.20;97.50;;;;;;4908100;29;20128;-75
2023/04/25 10:48:51;;;;;;;2.78;1.50;;;16.40;97.90;;;;;;4887693;29;20067;-75
2023/04/25 10:51:26;;;;;;;2.42;1.35;;;16.40;98.90;;;;;;4906901;29;20039;-73
2023/04/25 10:53:55;;;;;;;2.95;1.55;;;16.60;98.60;;;;;;4902362;29;20099;-75
2023/04/25 10:56:22;;;;;;;2.70;1.50;;;17.10;97.10;;;;;;4896322;29;20024;-76
2023/04/25 10:58:49;;;;;;;3.83;1.60;;;17.50;97.00;;;;;;4878426;29;20052;-74
2023/04/25 11:01:25;;;;;;;2.72;1.15;;;17.70;98.00;;;;;;4886510;29;20037;-76
2023/04/25 11:03:57;;;;;;;1.30;1.20;;;18.00;96.50;;;;;;4890453;29;20031;-73
2023/04/25 11:06:32;;;;;;;2.55;1.40;;;18.30;95.80;;;;;;4897749;29;20064;-76
2023/04/25 11:09:01;;;;;;;2.42;1.40;;;17.60;95.90;;;;;;4896545;29;20065;-76
2023/04/25 11:11:28;;;;;;;3.03;1.75;;;17.40;96.40;;;;;;4895158;29;20032;-74
2023/04/25 11:13:54;;;;;;;2.33;1.63;;;17.60;96.60;;;;;;4897052;29;20044;-74
2023/04/25 11:16:23;;;;;;;5.95;1.70;;;17.60;96.00;;;;;;4893651;29;20033;-73
2023/04/25 11:18:49;;;;;;;2.63;1.70;;;17.90;97.70;;;;;;4886296;29;20025;-74
2023/04/25 11:21:16;;;;;;;4.72;1.33;;;17.80;96.80;;;;;;4888109;29;20043;-75
2023/04/25 11:23:46;;;;;;;4.30;1.80;;;17.50;94.50;;;;;;4897958;29;20117;-73
2023/04/25 11:26:13;;;;;;;4.88;1.63;;;17.50;97.00;;;;;;4892332;29;20041;-74
2023/04/25 11:28:39;;;;;;;2.25;1.48;;;17.60;96.40;;;;;;4900901;29;20095;-74
2023/04/25 11:31:05;;;;;;;2.00;1.35;;;17.90;96.00;;;;;;4900794;29;20128;-75
2023/04/25 11:33:31;;;;;;;4.97;1.73;;;17.90;95.20;;;;;;4900846;29;20537;-74
2023/04/25 11:35:57;;;;;;;4.00;1.95;;;18.00;96.10;;;;;;4884184;29;20528;-77
2023/04/25 11:38:25;;;;;;;3.00;1.83;;;18.10;96.30;;;;;;4900686;29;20029;-74
2023/04/25 11:40:53;;;;;;;3.38;1.73;;;18.40;95.80;;;;;;4888630;29;20068;-72
2023/04/25 11:43:22;;;;;;;3.65;1.65;;;18.60;96.70;;;;;;4900652;29;20111;-72
2023/04/25 11:45:50;;;;;;;2.65;1.30;;;18.80;97.20;;;;;;4899870;29;20040;-72
2023/04/25 11:48:16;;;;;;;2.97;1.70;;;18.20;94.20;;;;;;4900587;29;20029;-74
2023/04/25 11:50:42;;;;;;;1.45;1.10;;;17.90;94.40;;;;;;4900945;29;20044;-74
2023/04/25 11:53:08;;;;;;;3.53;1.35;;;17.90;94.70;;;;;;4900593;29;20029;-74
2023/04/25 11:55:35;;;;;;;3.42;1.80;;;17.80;94.60;;;;;;4899554;29;20362;-73
2023/04/25 11:58:02;;;;;;;2.45;1.50;;;17.90;95.60;;;;;;4900493;29;20049;-74
2023/04/25 12:00:28;;;;;;;2.22;1.30;;;17.90;95.50;;;;;;4900323;29;20069;-74
2023/04/25 12:02:57;;;;;;;3.50;1.50;;;18.10;93.70;;;;;;4900424;29;20025;-76
2023/04/25 12:05:29;;;;;;;4.07;1.55;;;17.60;94.60;;;;;;4883310;29;20399;-74
2023/04/25 12:07:55;;;;;;;2.63;1.65;;;17.80;96.10;;;;;;4896156;29;20449;-73
2023/04/25 12:10:21;;;;;;;2.20;1.25;;;17.80;95.40;;;;;;4894028;29;20076;-73
2023/04/25 12:12:48;;;;;;;2.05;1.40;;;17.90;94.10;;;;;;4888512;29;20113;-75
2023/04/25 12:15:23;;;;;;;2.08;1.30;;;17.70;94.00;;;;;;4881270;29;20442;-74
2023/04/25 12:17:51;;;;;;;8.13;4.00;;;17.50;92.70;;;;;;4887809;29;20037;-74
2023/04/25 12:20:25;;;;;;;2.63;1.23;;;17.50;93.00;;;;;;4878161;29;20446;-75
2023/04/25 12:22:52;;;;;;;2.05;1.38;;;17.60;94.90;;;;;;4881300;29;20216;-75
2023/04/25 12:25:41;;;;;;;2.80;1.80;;;17.40;95.00;;;;;;4869604;29;20048;-76
2023/04/25 12:28:20;;;;;;;2.10;1.30;;;17.50;94.80;;;;;;4881822;29;20489;-76
2023/04/25 12:30:59;;;;;;;1.92;1.23;;;17.40;92.60;;;;;;4892539;29;20103;-76
2023/04/25 12:33:27;;;;;;;3.30;1.35;;;17.70;93.20;;;;;;4888278;29;20417;-76
2023/04/25 12:35:54;;;;;;;2.03;1.52;;;17.90;91.50;;;;;;4898662;29;20032;-76
2023/04/25 12:38:25;;;;;;;2.28;1.05;;;18.00;91.90;;;;;;4876526;29;20544;-76
2023/04/25 12:40:51;;;;;;;2.45;1.05;;;17.90;91.90;;;;;;4898929;29;20039;-75
2023/04/25 12:43:17;;;;;;;3.33;1.30;;;17.80;92.30;;;;;;4886480;29;20028;-75
2023/04/25 12:45:47;;;;;;;1.50;1.08;;;17.80;92.70;;;;;;4891912;29;20124;-75
2023/04/25 12:48:13;;;;;;;2.47;1.33;;;18.00;90.70;;;;;;4869045;29;20200;-74
2023/04/25 12:50:38;;;;;;;1.58;1.30;;;18.00;90.80;;;;;;4897234;29;20389;-74
2023/04/25 12:53:04;;;;;;;3.20;1.20;;;18.00;90.50;;;;;;4896818;29;20021;-75
2023/04/25 12:55:30;;;;;;;3.88;1.52;;;18.20;90.90;;;;;;4894469;29;20054;-74
2023/04/25 12:57:56;;;;;;;3.75;1.48;;;18.10;92.50;;;;;;4894011;29;20096;-76
2023/04/25 13:00:22;;;;;;;2.55;1.63;;;17.90;91.10;;;;;;4888588;29;20128;-75